sensor_id;sensor_type;location;lat;lon;timestamp;temperature;humidity
47604;DHT22;33326;51.116;6.900;2022-07-09T00:03:21;20.40;99.90
47604;DHT22;33326;51.116;6.900;2022-07-09T00:08:26;20.30;99.90
47604;DHT22;33326;51.116;6.900;2022-07-09T00:13:30;20.30;99.90
47604;DHT22;33326;51.116;6.900;2022-07-09T00:18:38;20.20;99.90
47604;DHT22;33326;51.116;6.900;2022-07-09T00:23:46;20.10;99.90
47604;DHT22;33326;51.116;6.900;2022-07-09T00:28:51;20.10;99.90
47604;DHT22;33326;51.116;6.900;2022-07-09T00:33:54;20.00;99.90
47604;DHT22;33326;51.116;6.900;2022-07-09T00:39:01;20.00;99.90
47604;DHT22;33326;51.116;6.900;2022-07-09T00:44:10;19.90;99.90
47604;DHT22;33326;51.116;6.900;2022-07-09T00:49:16;19.90;99.90
47604;DHT22;33326;51.116;6.900;2022-07-09T00:54:21;19.80;99.90
47604;DHT22;33326;51.116;6.900;2022-07-09T00:59:27;19.80;99.90
47604;DHT22;33326;51.116;6.900;2022-07-09T01:04:32;19.70;99.90
47604;DHT22;33326;51.116;6.900;2022-07-09T01:09:38;19.70;99.90
47604;DHT22;33326;51.116;6.900;2022-07-09T01:14:43;19.60;99.90
47604;DHT22;33326;51.116;6.900;2022-07-09T01:19:46;19.60;99.90
47604;DHT22;33326;51.116;6.900;2022-07-09T01:24:55;19.60;99.90
47604;DHT22;33326;51.116;6.900;2022-07-09T01:30:03;19.60;99.90
47604;DHT22;33326;51.116;6.900;2022-07-09T01:35:08;19.50;99.90
47604;DHT22;33326;51.116;6.900;2022-07-09T01:40:17;19.40;99.90
47604;DHT22;33326;51.116;6.900;2022-07-09T01:45:25;19.40;99.90
47604;DHT22;33326;51.116;6.900;2022-07-09T01:50:30;19.40;99.90
47604;DHT22;33326;51.116;6.900;2022-07-09T01:55:45;19.40;99.90
47604;DHT22;33326;51.116;6.900;2022-07-09T02:00:54;19.40;99.90
47604;DHT22;33326;51.116;6.900;2022-07-09T02:05:57;19.30;99.90
47604;DHT22;33326;51.116;6.900;2022-07-09T02:11:05;19.40;99.90
47604;DHT22;33326;51.116;6.900;2022-07-09T02:16:07;19.30;99.90
47604;DHT22;33326;51.116;6.900;2022-07-09T02:21:10;19.30;99.90
47604;DHT22;33326;51.116;6.900;2022-07-09T02:26:15;19.40;99.90
47604;DHT22;33326;51.116;6.900;2022-07-09T02:31:23;19.50;99.90
47604;DHT22;33326;51.116;6.900;2022-07-09T02:36:29;19.40;99.90
47604;DHT22;33326;51.116;6.900;2022-07-09T02:41:41;19.40;99.90
47604;DHT22;33326;51.116;6.900;2022-07-09T02:46:53;19.40;99.90
47604;DHT22;33326;51.116;6.900;2022-07-09T02:51:56;19.50;99.90
47604;DHT22;33326;51.116;6.900;2022-07-09T02:57:11;19.50;99.90
47604;DHT22;33326;51.116;6.900;2022-07-09T03:02:23;19.40;99.90
47604;DHT22;33326;51.116;6.900;2022-07-09T03:07:30;19.30;99.90
47604;DHT22;33326;51.116;6.900;2022-07-09T03:12:53;19.40;99.90
47604;DHT22;33326;51.116;6.900;2022-07-09T03:18:17;19.30;99.90
47604;DHT22;33326;51.116;6.900;2022-07-09T03:23:23;19.20;99.90
47604;DHT22;33326;51.116;6.900;2022-07-09T03:28:30;19.10;99.90
47604;DHT22;33326;51.116;6.900;2022-07-09T03:33:33;19.10;99.90
47604;DHT22;33326;51.116;6.900;2022-07-09T03:38:47;19.00;99.90
47604;DHT22;33326;51.116;6.900;2022-07-09T03:44:00;19.00;99.90
47604;DHT22;33326;51.116;6.900;2022-07-09T03:49:10;19.00;99.90
47604;DHT22;33326;51.116;6.900;2022-07-09T03:54:23;19.00;99.90
47604;DHT22;33326;51.116;6.900;2022-07-09T03:59:44;18.90;99.90
47604;DHT22;33326;51.116;6.900;2022-07-09T04:05:05;18.90;99.90
47604;DHT22;33326;51.116;6.900;2022-07-09T04:10:26;19.00;99.90
47604;DHT22;33326;51.116;6.900;2022-07-09T04:15:45;18.90;99.90
47604;DHT22;33326;51.116;6.900;2022-07-09T04:20:51;18.90;99.90
47604;DHT22;33326;51.116;6.900;2022-07-09T04:26:00;19.00;99.90
47604;DHT22;33326;51.116;6.900;2022-07-09T04:31:15;19.00;99.90
47604;DHT22;33326;51.116;6.900;2022-07-09T04:36:28;19.00;99.90
47604;DHT22;33326;51.116;6.900;2022-07-09T04:41:34;19.00;99.90
47604;DHT22;33326;51.116;6.900;2022-07-09T04:46:40;19.00;99.90
47604;DHT22;33326;51.116;6.900;2022-07-09T04:51:43;19.00;99.90
47604;DHT22;33326;51.116;6.900;2022-07-09T04:56:48;19.00;99.90
47604;DHT22;33326;51.116;6.900;2022-07-09T05:01:56;19.00;99.90
47604;DHT22;33326;51.116;6.900;2022-07-09T05:07:01;19.10;99.90
47604;DHT22;33326;51.116;6.900;2022-07-09T05:12:04;19.00;99.90
47604;DHT22;33326;51.116;6.900;2022-07-09T05:17:22;19.10;99.90
47604;DHT22;33326;51.116;6.900;2022-07-09T05:22:28;19.10;99.90
47604;DHT22;33326;51.116;6.900;2022-07-09T05:27:42;19.00;99.90
47604;DHT22;33326;51.116;6.900;2022-07-09T05:32:48;19.00;99.90
47604;DHT22;33326;51.116;6.900;2022-07-09T05:37:56;19.10;99.90
47604;DHT22;33326;51.116;6.900;2022-07-09T05:43:01;19.10;99.90
47604;DHT22;33326;51.116;6.900;2022-07-09T05:48:11;19.20;99.90
47604;DHT22;33326;51.116;6.900;2022-07-09T05:53:16;19.20;99.90
47604;DHT22;33326;51.116;6.900;2022-07-09T05:58:24;19.30;99.90
47604;DHT22;33326;51.116;6.900;2022-07-09T06:03:28;19.20;99.90
47604;DHT22;33326;51.116;6.900;2022-07-09T06:08:31;19.20;99.90
47604;DHT22;33326;51.116;6.900;2022-07-09T06:13:34;19.30;99.90
47604;DHT22;33326;51.116;6.900;2022-07-09T06:18:38;19.40;99.90
47604;DHT22;33326;51.116;6.900;2022-07-09T06:23:40;19.40;99.90
47604;DHT22;33326;51.116;6.900;2022-07-09T06:28:42;19.50;99.90
47604;DHT22;33326;51.116;6.900;2022-07-09T06:33:49;19.50;99.90
47604;DHT22;33326;51.116;6.900;2022-07-09T06:38:51;19.60;99.90
47604;DHT22;33326;51.116;6.900;2022-07-09T06:44:16;19.70;99.90
47604;DHT22;33326;51.116;6.900;2022-07-09T06:49:27;19.70;99.90
47604;DHT22;33326;51.116;6.900;2022-07-09T06:54:35;19.80;99.90
47604;DHT22;33326;51.116;6.900;2022-07-09T06:59:41;19.90;99.90
47604;DHT22;33326;51.116;6.900;2022-07-09T07:04:50;20.00;99.90
47604;DHT22;33326;51.116;6.900;2022-07-09T07:10:00;20.00;99.90
47604;DHT22;33326;51.116;6.900;2022-07-09T07:15:24;20.10;99.90
47604;DHT22;33326;51.116;6.900;2022-07-09T07:20:38;20.10;99.90
47604;DHT22;33326;51.116;6.900;2022-07-09T07:25:43;20.20;99.90
47604;DHT22;33326;51.116;6.900;2022-07-09T07:30:48;20.30;99.90
47604;DHT22;33326;51.116;6.900;2022-07-09T07:35:53;20.40;99.90
47604;DHT22;33326;51.116;6.900;2022-07-09T07:40:55;20.50;99.90
47604;DHT22;33326;51.116;6.900;2022-07-09T07:45:57;20.60;99.90
47604;DHT22;33326;51.116;6.900;2022-07-09T07:51:11;20.60;99.90
47604;DHT22;33326;51.116;6.900;2022-07-09T07:56:14;20.70;99.90
47604;DHT22;33326;51.116;6.900;2022-07-09T08:01:22;20.80;99.90
47604;DHT22;33326;51.116;6.900;2022-07-09T08:06:26;21.00;99.90
47604;DHT22;33326;51.116;6.900;2022-07-09T08:11:31;21.20;99.90
47604;DHT22;33326;51.116;6.900;2022-07-09T08:16:33;21.30;99.90
47604;DHT22;33326;51.116;6.900;2022-07-09T08:21:44;21.50;99.90
47604;DHT22;33326;51.116;6.900;2022-07-09T08:26:51;21.60;99.90
47604;DHT22;33326;51.116;6.900;2022-07-09T08:31:53;21.50;99.90
47604;DHT22;33326;51.116;6.900;2022-07-09T08:36:57;21.70;99.90
47604;DHT22;33326;51.116;6.900;2022-07-09T08:41:59;21.80;99.90
47604;DHT22;33326;51.116;6.900;2022-07-09T08:47:02;22.00;99.90
47604;DHT22;33326;51.116;6.900;2022-07-09T08:52:07;22.20;99.90
47604;DHT22;33326;51.116;6.900;2022-07-09T08:57:09;22.30;99.90
47604;DHT22;33326;51.116;6.900;2022-07-09T09:02:12;22.30;99.90
47604;DHT22;33326;51.116;6.900;2022-07-09T09:07:17;22.20;99.90
47604;DHT22;33326;51.116;6.900;2022-07-09T09:12:27;22.20;99.90
47604;DHT22;33326;51.116;6.900;2022-07-09T09:17:30;22.30;99.90
47604;DHT22;33326;51.116;6.900;2022-07-09T09:22:43;22.40;99.90
47604;DHT22;33326;51.116;6.900;2022-07-09T09:27:55;22.60;99.90
47604;DHT22;33326;51.116;6.900;2022-07-09T09:32:57;22.80;99.90
47604;DHT22;33326;51.116;6.900;2022-07-09T09:38:01;23.10;99.90
47604;DHT22;33326;51.116;6.900;2022-07-09T09:43:04;23.10;99.90
47604;DHT22;33326;51.116;6.900;2022-07-09T09:48:06;23.30;99.90
47604;DHT22;33326;51.116;6.900;2022-07-09T09:53:09;23.40;99.90
47604;DHT22;33326;51.116;6.900;2022-07-09T09:58:13;23.50;99.90
47604;DHT22;33326;51.116;6.900;2022-07-09T10:03:16;23.60;99.70
47604;DHT22;33326;51.116;6.900;2022-07-09T10:08:20;23.60;99.60
47604;DHT22;33326;51.116;6.900;2022-07-09T10:13:22;23.60;99.30
47604;DHT22;33326;51.116;6.900;2022-07-09T10:18:24;23.70;98.90
47604;DHT22;33326;51.116;6.900;2022-07-09T10:23:28;23.70;98.60
47604;DHT22;33326;51.116;6.900;2022-07-09T10:28:40;23.90;99.20
47604;DHT22;33326;51.116;6.900;2022-07-09T10:33:54;24.10;98.30
47604;DHT22;33326;51.116;6.900;2022-07-09T10:39:11;24.20;98.70
47604;DHT22;33326;51.116;6.900;2022-07-09T10:44:26;24.30;98.90
47604;DHT22;33326;51.116;6.900;2022-07-09T10:49:36;24.30;98.30
47604;DHT22;33326;51.116;6.900;2022-07-09T10:54:49;24.10;98.30
47604;DHT22;33326;51.116;6.900;2022-07-09T11:00:03;24.00;98.70
47604;DHT22;33326;51.116;6.900;2022-07-09T11:05:10;23.90;98.60
47604;DHT22;33326;51.116;6.900;2022-07-09T11:10:20;24.00;98.90
47604;DHT22;33326;51.116;6.900;2022-07-09T11:15:23;24.30;98.70
47604;DHT22;33326;51.116;6.900;2022-07-09T11:20:28;24.30;98.40
47604;DHT22;33326;51.116;6.900;2022-07-09T11:25:34;24.30;98.30
47604;DHT22;33326;51.116;6.900;2022-07-09T11:30:41;24.40;98.00
47604;DHT22;33326;51.116;6.900;2022-07-09T11:35:52;24.40;97.90
47604;DHT22;33326;51.116;6.900;2022-07-09T11:41:12;24.50;97.90
47604;DHT22;33326;51.116;6.900;2022-07-09T11:46:41;25.00;97.80
47604;DHT22;33326;51.116;6.900;2022-07-09T11:52:03;24.80;97.40
47604;DHT22;33326;51.116;6.900;2022-07-09T11:57:35;24.60;97.60
47604;DHT22;33326;51.116;6.900;2022-07-09T12:02:45;24.70;97.40
47604;DHT22;33326;51.116;6.900;2022-07-09T12:08:25;24.90;97.10
47604;DHT22;33326;51.116;6.900;2022-07-09T12:19:53;24.90;96.90
47604;DHT22;33326;51.116;6.900;2022-07-09T12:25:10;24.90;96.80
47604;DHT22;33326;51.116;6.900;2022-07-09T12:30:44;24.70;97.00
47604;DHT22;33326;51.116;6.900;2022-07-09T12:36:00;24.90;97.20
47604;DHT22;33326;51.116;6.900;2022-07-09T12:41:59;25.10;97.60
47604;DHT22;33326;51.116;6.900;2022-07-09T12:47:53;25.70;96.90
47604;DHT22;33326;51.116;6.900;2022-07-09T12:53:28;25.90;96.10
47604;DHT22;33326;51.116;6.900;2022-07-09T12:58:36;26.00;96.20
47604;DHT22;33326;51.116;6.900;2022-07-09T13:03:39;25.60;96.40
47604;DHT22;33326;51.116;6.900;2022-07-09T13:08:45;25.40;96.80
47604;DHT22;33326;51.116;6.900;2022-07-09T13:14:01;25.30;97.00
47604;DHT22;33326;51.116;6.900;2022-07-09T13:19:03;25.00;97.20
47604;DHT22;33326;51.116;6.900;2022-07-09T13:24:07;25.00;97.40
47604;DHT22;33326;51.116;6.900;2022-07-09T13:29:09;24.90;97.60
47604;DHT22;33326;51.116;6.900;2022-07-09T13:34:10;24.70;97.80
47604;DHT22;33326;51.116;6.900;2022-07-09T13:39:14;24.50;98.20
47604;DHT22;33326;51.116;6.900;2022-07-09T13:44:15;24.50;98.40
47604;DHT22;33326;51.116;6.900;2022-07-09T13:49:17;24.40;98.60
47604;DHT22;33326;51.116;6.900;2022-07-09T13:54:20;24.30;99.00
47604;DHT22;33326;51.116;6.900;2022-07-09T13:59:22;24.90;99.50
47604;DHT22;33326;51.116;6.900;2022-07-09T14:04:24;24.90;98.60
47604;DHT22;33326;51.116;6.900;2022-07-09T14:09:27;24.90;98.70
47604;DHT22;33326;51.116;6.900;2022-07-09T14:14:29;24.90;99.00
47604;DHT22;33326;51.116;6.900;2022-07-09T14:19:31;24.70;99.10
47604;DHT22;33326;51.116;6.900;2022-07-09T14:24:35;24.50;99.40
47604;DHT22;33326;51.116;6.900;2022-07-09T14:29:37;24.50;99.80
47604;DHT22;33326;51.116;6.900;2022-07-09T14:34:38;24.80;99.50
47604;DHT22;33326;51.116;6.900;2022-07-09T14:39:42;24.90;99.30
47604;DHT22;33326;51.116;6.900;2022-07-09T14:44:43;24.80;99.20
47604;DHT22;33326;51.116;6.900;2022-07-09T14:49:45;24.70;99.50
47604;DHT22;33326;51.116;6.900;2022-07-09T14:54:49;24.70;99.70
47604;DHT22;33326;51.116;6.900;2022-07-09T14:59:50;24.50;99.20
47604;DHT22;33326;51.116;6.900;2022-07-09T15:04:52;24.40;98.60
47604;DHT22;33326;51.116;6.900;2022-07-09T15:09:55;24.40;98.80
47604;DHT22;33326;51.116;6.900;2022-07-09T15:14:57;24.30;98.60
47604;DHT22;33326;51.116;6.900;2022-07-09T15:19:59;24.30;98.20
47604;DHT22;33326;51.116;6.900;2022-07-09T15:25:04;24.40;97.90
47604;DHT22;33326;51.116;6.900;2022-07-09T15:30:07;24.60;97.40
47604;DHT22;33326;51.116;6.900;2022-07-09T15:35:09;24.70;97.10
47604;DHT22;33326;51.116;6.900;2022-07-09T15:40:13;24.80;96.90
47604;DHT22;33326;51.116;6.900;2022-07-09T15:45:16;24.90;96.80
47604;DHT22;33326;51.116;6.900;2022-07-09T15:50:20;25.00;96.00
47604;DHT22;33326;51.116;6.900;2022-07-09T15:55:23;24.80;95.50
47604;DHT22;33326;51.116;6.900;2022-07-09T16:00:25;24.60;95.60
47604;DHT22;33326;51.116;6.900;2022-07-09T16:05:27;24.60;95.90
47604;DHT22;33326;51.116;6.900;2022-07-09T16:10:30;24.50;95.70
47604;DHT22;33326;51.116;6.900;2022-07-09T16:15:32;24.40;95.60
47604;DHT22;33326;51.116;6.900;2022-07-09T16:20:34;24.30;95.20
47604;DHT22;33326;51.116;6.900;2022-07-09T16:25:37;24.30;94.80
47604;DHT22;33326;51.116;6.900;2022-07-09T16:30:39;24.30;95.00
47604;DHT22;33326;51.116;6.900;2022-07-09T16:35:41;24.40;95.20
47604;DHT22;33326;51.116;6.900;2022-07-09T16:40:44;24.50;94.80
47604;DHT22;33326;51.116;6.900;2022-07-09T16:45:46;24.40;94.10
47604;DHT22;33326;51.116;6.900;2022-07-09T16:50:48;24.20;93.80
47604;DHT22;33326;51.116;6.900;2022-07-09T16:55:51;24.20;93.90
47604;DHT22;33326;51.116;6.900;2022-07-09T17:00:53;24.20;93.80
47604;DHT22;33326;51.116;6.900;2022-07-09T17:05:55;24.10;93.50
47604;DHT22;33326;51.116;6.900;2022-07-09T17:10:58;24.00;93.20
47604;DHT22;33326;51.116;6.900;2022-07-09T17:16:00;23.90;93.40
47604;DHT22;33326;51.116;6.900;2022-07-09T17:21:02;24.00;93.20
47604;DHT22;33326;51.116;6.900;2022-07-09T17:26:05;24.00;93.00
47604;DHT22;33326;51.116;6.900;2022-07-09T17:31:07;23.90;92.80
47604;DHT22;33326;51.116;6.900;2022-07-09T17:36:10;23.80;92.70
47604;DHT22;33326;51.116;6.900;2022-07-09T17:41:13;23.80;92.20
47604;DHT22;33326;51.116;6.900;2022-07-09T17:46:15;23.80;91.80
47604;DHT22;33326;51.116;6.900;2022-07-09T17:51:17;23.70;91.40
47604;DHT22;33326;51.116;6.900;2022-07-09T17:56:20;23.60;91.60
47604;DHT22;33326;51.116;6.900;2022-07-09T18:01:22;23.60;91.30
47604;DHT22;33326;51.116;6.900;2022-07-09T18:06:24;23.60;91.40
47604;DHT22;33326;51.116;6.900;2022-07-09T18:11:27;23.50;91.50
47604;DHT22;33326;51.116;6.900;2022-07-09T18:16:29;23.30;92.40
47604;DHT22;33326;51.116;6.900;2022-07-09T18:21:32;23.30;93.10
47604;DHT22;33326;51.116;6.900;2022-07-09T18:26:36;23.20;93.50
47604;DHT22;33326;51.116;6.900;2022-07-09T18:31:38;22.90;93.70
47604;DHT22;33326;51.116;6.900;2022-07-09T18:36:40;22.90;93.80
47604;DHT22;33326;51.116;6.900;2022-07-09T18:41:43;22.70;94.00
47604;DHT22;33326;51.116;6.900;2022-07-09T18:46:46;22.50;94.10
47604;DHT22;33326;51.116;6.900;2022-07-09T18:51:49;22.40;94.30
47604;DHT22;33326;51.116;6.900;2022-07-09T18:56:52;22.30;94.60
47604;DHT22;33326;51.116;6.900;2022-07-09T19:01:54;22.20;94.80
47604;DHT22;33326;51.116;6.900;2022-07-09T19:06:58;22.30;94.80
47604;DHT22;33326;51.116;6.900;2022-07-09T19:12:01;22.20;94.70
47604;DHT22;33326;51.116;6.900;2022-07-09T19:17:03;22.10;94.60
47604;DHT22;33326;51.116;6.900;2022-07-09T19:22:05;22.00;94.40
47604;DHT22;33326;51.116;6.900;2022-07-09T19:27:08;21.90;94.60
47604;DHT22;33326;51.116;6.900;2022-07-09T19:32:10;21.60;94.70
47604;DHT22;33326;51.116;6.900;2022-07-09T19:37:30;21.50;95.00
47604;DHT22;33326;51.116;6.900;2022-07-09T19:42:34;21.40;95.00
47604;DHT22;33326;51.116;6.900;2022-07-09T19:47:35;21.20;95.10
47604;DHT22;33326;51.116;6.900;2022-07-09T19:52:40;21.20;95.10
47604;DHT22;33326;51.116;6.900;2022-07-09T19:57:43;21.10;95.10
47604;DHT22;33326;51.116;6.900;2022-07-09T20:02:45;21.10;95.40
47604;DHT22;33326;51.116;6.900;2022-07-09T20:07:47;20.90;95.50
47604;DHT22;33326;51.116;6.900;2022-07-09T20:12:50;21.00;95.30
47604;DHT22;33326;51.116;6.900;2022-07-09T20:17:52;21.00;95.30
47604;DHT22;33326;51.116;6.900;2022-07-09T20:22:54;20.90;95.40
47604;DHT22;33326;51.116;6.900;2022-07-09T20:27:59;20.90;95.50
47604;DHT22;33326;51.116;6.900;2022-07-09T20:33:02;20.80;95.70
47604;DHT22;33326;51.116;6.900;2022-07-09T20:38:04;20.60;96.00
47604;DHT22;33326;51.116;6.900;2022-07-09T20:43:07;20.60;96.10
47604;DHT22;33326;51.116;6.900;2022-07-09T20:48:09;20.30;96.30
47604;DHT22;33326;51.116;6.900;2022-07-09T20:53:11;20.30;96.40
47604;DHT22;33326;51.116;6.900;2022-07-09T20:58:14;20.30;96.40
47604;DHT22;33326;51.116;6.900;2022-07-09T21:03:16;20.20;96.60
47604;DHT22;33326;51.116;6.900;2022-07-09T21:08:18;20.20;96.60
47604;DHT22;33326;51.116;6.900;2022-07-09T21:13:21;20.10;96.80
47604;DHT22;33326;51.116;6.900;2022-07-09T21:18:23;20.00;96.80
47604;DHT22;33326;51.116;6.900;2022-07-09T21:23:43;19.90;96.80
47604;DHT22;33326;51.116;6.900;2022-07-09T21:28:46;19.80;96.90
47604;DHT22;33326;51.116;6.900;2022-07-09T21:33:48;19.70;97.10
47604;DHT22;33326;51.116;6.900;2022-07-09T21:38:50;19.70;97.00
47604;DHT22;33326;51.116;6.900;2022-07-09T21:43:53;19.60;96.70
47604;DHT22;33326;51.116;6.900;2022-07-09T21:48:56;19.40;96.00
47604;DHT22;33326;51.116;6.900;2022-07-09T21:53:58;19.30;95.90
47604;DHT22;33326;51.116;6.900;2022-07-09T21:59:01;19.20;96.00
47604;DHT22;33326;51.116;6.900;2022-07-09T22:04:03;19.20;95.90
47604;DHT22;33326;51.116;6.900;2022-07-09T22:09:05;19.20;95.80
47604;DHT22;33326;51.116;6.900;2022-07-09T22:14:08;19.20;95.90
47604;DHT22;33326;51.116;6.900;2022-07-09T22:19:10;19.10;96.00
47604;DHT22;33326;51.116;6.900;2022-07-09T22:24:12;19.20;96.00
47604;DHT22;33326;51.116;6.900;2022-07-09T22:29:15;19.00;96.10
47604;DHT22;33326;51.116;6.900;2022-07-09T22:34:17;18.90;96.20
47604;DHT22;33326;51.116;6.900;2022-07-09T22:39:19;18.80;96.20
47604;DHT22;33326;51.116;6.900;2022-07-09T22:44:22;18.80;96.20
47604;DHT22;33326;51.116;6.900;2022-07-09T22:49:24;18.60;96.50
47604;DHT22;33326;51.116;6.900;2022-07-09T22:54:26;18.60;96.60
47604;DHT22;33326;51.116;6.900;2022-07-09T22:59:29;18.50;96.60
47604;DHT22;33326;51.116;6.900;2022-07-09T23:04:31;18.50;96.60
47604;DHT22;33326;51.116;6.900;2022-07-09T23:09:32;18.30;96.60
47604;DHT22;33326;51.116;6.900;2022-07-09T23:14:36;18.10;96.70
47604;DHT22;33326;51.116;6.900;2022-07-09T23:19:38;18.10;96.80
47604;DHT22;33326;51.116;6.900;2022-07-09T23:24:40;18.20;96.70
47604;DHT22;33326;51.116;6.900;2022-07-09T23:29:44;18.10;96.80
47604;DHT22;33326;51.116;6.900;2022-07-09T23:34:45;18.00;96.80
47604;DHT22;33326;51.116;6.900;2022-07-09T23:39:47;17.90;96.90
47604;DHT22;33326;51.116;6.900;2022-07-09T23:44:50;18.00;96.90
47604;DHT22;33326;51.116;6.900;2022-07-09T23:49:52;18.10;96.90
47604;DHT22;33326;51.116;6.900;2022-07-09T23:54:54;18.10;96.90
47604;DHT22;33326;51.116;6.900;2022-07-09T23:59:57;18.00;97.00
